createdAt,value
2023-09-17T00:02:38.343Z,18.40
2023-09-17T00:17:39.134Z,18.60
2023-09-17T00:32:40.037Z,22.80
2023-09-17T00:47:40.594Z,19.90
2023-09-17T01:02:43.847Z,16.60
2023-09-17T01:17:41.641Z,21.30
2023-09-17T01:32:42.435Z,19.90
2023-09-17T01:47:42.971Z,20.70
2023-09-17T02:02:43.892Z,19.60
2023-09-17T02:17:44.638Z,19.50
2023-09-17T02:32:45.201Z,19.40
2023-09-17T02:47:45.828Z,23.90
2023-09-17T03:02:46.407Z,18.60
2023-09-17T03:17:46.696Z,17.60
2023-09-17T03:33:01.972Z,18.10
2023-09-17T03:47:48.933Z,18.40
2023-09-17T04:02:48.108Z,16.00
2023-09-17T04:17:48.889Z,13.70
2023-09-17T04:32:51.694Z,22.20
2023-09-17T04:47:50.016Z,23.20
2023-09-17T05:02:51.024Z,22.30
2023-09-17T05:17:51.236Z,15.40
2023-09-17T05:32:51.947Z,15.70
2023-09-17T05:47:52.769Z,14.40
2023-09-17T06:02:53.259Z,17.50
2023-09-17T06:17:54.036Z,16.70
2023-09-17T06:32:54.932Z,14.70
2023-09-17T06:47:55.466Z,12.20
2023-09-17T07:02:55.852Z,13.80
2023-09-17T07:17:56.339Z,11.50
2023-09-17T07:32:57.176Z,11.00
2023-09-17T07:47:57.783Z,14.00
2023-09-17T08:02:58.349Z,12.00
2023-09-17T08:17:59.077Z,9.40
2023-09-17T08:32:59.617Z,8.00
2023-09-17T08:48:00.437Z,9.20
2023-09-17T09:03:01.363Z,9.50
2023-09-17T09:18:02.122Z,7.60
2023-09-17T09:33:02.522Z,8.70
2023-09-17T09:48:03.241Z,8.80
2023-09-17T10:03:03.733Z,7.70
2023-09-17T10:18:04.314Z,8.30
2023-09-17T10:33:05.058Z,7.60
2023-09-17T10:48:05.804Z,6.40
2023-09-17T11:03:06.477Z,8.80
2023-09-17T11:18:06.761Z,6.20
2023-09-17T11:33:07.475Z,7.90
2023-09-17T11:48:07.803Z,6.50
2023-09-17T12:03:08.338Z,7.00
2023-09-17T12:18:09.078Z,7.10
2023-09-17T12:33:09.851Z,5.90
2023-09-17T12:48:10.405Z,5.50
2023-09-17T13:03:10.832Z,4.90
2023-09-17T13:18:11.450Z,5.00
2023-09-17T13:33:12.236Z,6.30
2023-09-17T13:48:13.222Z,5.90
2023-09-17T14:03:13.722Z,5.30
2023-09-17T14:18:14.526Z,5.80
2023-09-17T14:33:15.374Z,7.30
2023-09-17T14:48:15.964Z,6.60
2023-09-17T15:03:17.107Z,5.70
2023-09-17T15:18:16.953Z,5.90
2023-09-17T15:33:17.339Z,7.60
2023-09-17T15:48:17.623Z,5.70
2023-09-17T16:03:20.441Z,6.40
2023-09-17T16:18:19.021Z,5.70
2023-09-17T16:33:19.958Z,6.90
2023-09-17T16:48:20.447Z,7.80
2023-09-17T17:03:21.074Z,6.60
2023-09-17T17:18:21.378Z,9.60
2023-09-17T17:33:21.935Z,7.40
2023-09-17T17:48:43.421Z,9.30
2023-09-17T18:03:24.533Z,8.20
2023-09-17T18:18:45.417Z,10.30
2023-09-17T18:33:24.824Z,9.40
2023-09-17T18:48:25.767Z,10.20
2023-09-17T19:03:26.626Z,9.50
2023-09-17T19:18:27.113Z,9.30
2023-09-17T19:33:27.889Z,8.70
2023-09-17T20:03:29.289Z,9.30
2023-09-17T20:18:29.824Z,11.30
2023-09-17T20:33:30.344Z,11.20
2023-09-17T20:48:31.074Z,9.90
2023-09-17T21:03:31.923Z,10.10
2023-09-17T21:18:37.553Z,10.80
2023-09-17T21:33:32.712Z,8.90
2023-09-17T21:48:33.497Z,11.90
2023-09-17T22:03:34.414Z,13.20
2023-09-17T22:18:35.199Z,14.20
2023-09-17T22:33:35.429Z,13.90
2023-09-17T22:48:35.954Z,12.40
2023-09-17T23:03:36.611Z,14.20
2023-09-17T23:18:37.319Z,13.80
2023-09-17T23:33:38.174Z,15.30
2023-09-17T23:48:39.116Z,16.20
